sensor_id;sensor_type;location;lat;lon;timestamp;P1;durP1;ratioP1;P2;durP2;ratioP2
23720;SDS011;42950;52.134;5.578;2023-04-28T00:01:32;7.80;;;4.60;;
23720;SDS011;42950;52.134;5.578;2023-04-28T00:03:57;5.97;;;4.32;;
23720;SDS011;42950;52.134;5.578;2023-04-28T00:06:24;7.95;;;4.85;;
23720;SDS011;42950;52.134;5.578;2023-04-28T00:08:50;9.55;;;4.50;;
23720;SDS011;42950;52.134;5.578;2023-04-28T00:11:15;5.80;;;4.55;;
23720;SDS011;42950;52.134;5.578;2023-04-28T00:13:41;6.03;;;4.15;;
23720;SDS011;42950;52.134;5.578;2023-04-28T00:16:07;6.00;;;4.40;;
23720;SDS011;42950;52.134;5.578;2023-04-28T00:18:32;6.97;;;4.70;;
23720;SDS011;42950;52.134;5.578;2023-04-28T00:20:58;6.05;;;4.57;;
23720;SDS011;42950;52.134;5.578;2023-04-28T00:23:25;5.55;;;4.32;;
23720;SDS011;42950;52.134;5.578;2023-04-28T00:25:51;7.95;;;4.78;;
23720;SDS011;42950;52.134;5.578;2023-04-28T00:28:17;7.20;;;4.78;;
23720;SDS011;42950;52.134;5.578;2023-04-28T00:30:43;9.48;;;4.63;;
23720;SDS011;42950;52.134;5.578;2023-04-28T00:33:09;6.05;;;4.55;;
23720;SDS011;42950;52.134;5.578;2023-04-28T00:35:34;6.95;;;4.90;;
23720;SDS011;42950;52.134;5.578;2023-04-28T00:38:00;5.45;;;4.45;;
23720;SDS011;42950;52.134;5.578;2023-04-28T00:40:33;5.40;;;4.43;;
23720;SDS011;42950;52.134;5.578;2023-04-28T00:43:04;7.22;;;4.55;;
23720;SDS011;42950;52.134;5.578;2023-04-28T00:45:30;4.70;;;4.15;;
23720;SDS011;42950;52.134;5.578;2023-04-28T00:47:56;5.88;;;4.65;;
23720;SDS011;42950;52.134;5.578;2023-04-28T00:50:23;6.47;;;4.72;;
23720;SDS011;42950;52.134;5.578;2023-04-28T00:52:50;6.28;;;4.45;;
23720;SDS011;42950;52.134;5.578;2023-04-28T00:55:17;7.13;;;4.65;;
23720;SDS011;42950;52.134;5.578;2023-04-28T00:57:44;6.15;;;4.45;;
23720;SDS011;42950;52.134;5.578;2023-04-28T01:00:10;6.78;;;4.30;;
23720;SDS011;42950;52.134;5.578;2023-04-28T01:02:36;6.53;;;4.32;;
23720;SDS011;42950;52.134;5.578;2023-04-28T01:07:32;6.55;;;4.93;;
23720;SDS011;42950;52.134;5.578;2023-04-28T01:09:58;6.47;;;4.38;;
23720;SDS011;42950;52.134;5.578;2023-04-28T01:12:24;5.10;;;4.03;;
23720;SDS011;42950;52.134;5.578;2023-04-28T01:14:50;6.90;;;4.40;;
23720;SDS011;42950;52.134;5.578;2023-04-28T01:17:16;6.15;;;4.40;;
23720;SDS011;42950;52.134;5.578;2023-04-28T01:19:42;7.90;;;4.82;;
23720;SDS011;42950;52.134;5.578;2023-04-28T01:22:08;4.68;;;4.20;;
23720;SDS011;42950;52.134;5.578;2023-04-28T01:24:38;6.35;;;4.47;;
23720;SDS011;42950;52.134;5.578;2023-04-28T01:27:04;6.53;;;4.38;;
23720;SDS011;42950;52.134;5.578;2023-04-28T01:29:31;5.38;;;4.00;;
23720;SDS011;42950;52.134;5.578;2023-04-28T01:31:58;5.55;;;4.10;;
23720;SDS011;42950;52.134;5.578;2023-04-28T01:34:23;6.45;;;4.43;;
23720;SDS011;42950;52.134;5.578;2023-04-28T01:36:49;5.38;;;4.07;;
23720;SDS011;42950;52.134;5.578;2023-04-28T01:39:15;5.60;;;4.78;;
23720;SDS011;42950;52.134;5.578;2023-04-28T01:41:41;5.32;;;4.45;;
23720;SDS011;42950;52.134;5.578;2023-04-28T01:44:06;5.57;;;4.60;;
23720;SDS011;42950;52.134;5.578;2023-04-28T01:46:32;4.95;;;4.45;;
23720;SDS011;42950;52.134;5.578;2023-04-28T01:48:58;5.53;;;4.13;;
23720;SDS011;42950;52.134;5.578;2023-04-28T01:51:24;11.07;;;4.30;;
23720;SDS011;42950;52.134;5.578;2023-04-28T01:53:51;5.00;;;4.50;;
23720;SDS011;42950;52.134;5.578;2023-04-28T01:56:18;5.85;;;4.60;;
23720;SDS011;42950;52.134;5.578;2023-04-28T01:58:43;7.63;;;4.50;;
23720;SDS011;42950;52.134;5.578;2023-04-28T02:01:09;7.05;;;4.57;;
23720;SDS011;42950;52.134;5.578;2023-04-28T02:03:35;5.93;;;4.43;;
23720;SDS011;42950;52.134;5.578;2023-04-28T02:06:01;7.88;;;4.63;;
23720;SDS011;42950;52.134;5.578;2023-04-28T02:08:26;5.82;;;4.60;;
23720;SDS011;42950;52.134;5.578;2023-04-28T02:10:52;6.75;;;4.82;;
23720;SDS011;42950;52.134;5.578;2023-04-28T02:13:18;4.95;;;4.50;;
23720;SDS011;42950;52.134;5.578;2023-04-28T02:15:43;6.65;;;4.45;;
23720;SDS011;42950;52.134;5.578;2023-04-28T02:18:09;5.78;;;4.07;;
23720;SDS011;42950;52.134;5.578;2023-04-28T02:20:35;6.45;;;4.10;;
23720;SDS011;42950;52.134;5.578;2023-04-28T02:23:00;6.50;;;4.63;;
23720;SDS011;42950;52.134;5.578;2023-04-28T02:25:26;6.90;;;4.28;;
23720;SDS011;42950;52.134;5.578;2023-04-28T02:27:52;5.28;;;4.18;;
23720;SDS011;42950;52.134;5.578;2023-04-28T02:30:18;7.32;;;4.57;;
23720;SDS011;42950;52.134;5.578;2023-04-28T02:32:45;4.63;;;4.13;;
23720;SDS011;42950;52.134;5.578;2023-04-28T02:35:11;6.82;;;4.32;;
23720;SDS011;42950;52.134;5.578;2023-04-28T02:37:38;6.32;;;4.80;;
23720;SDS011;42950;52.134;5.578;2023-04-28T02:40:03;8.13;;;4.50;;
23720;SDS011;42950;52.134;5.578;2023-04-28T02:42:29;7.40;;;4.50;;
23720;SDS011;42950;52.134;5.578;2023-04-28T02:44:55;12.15;;;4.85;;
23720;SDS011;42950;52.134;5.578;2023-04-28T02:47:22;4.75;;;4.28;;
23720;SDS011;42950;52.134;5.578;2023-04-28T02:49:48;5.60;;;4.63;;
23720;SDS011;42950;52.134;5.578;2023-04-28T02:52:13;7.55;;;4.60;;
23720;SDS011;42950;52.134;5.578;2023-04-28T02:54:39;4.88;;;4.22;;
23720;SDS011;42950;52.134;5.578;2023-04-28T02:57:05;7.28;;;4.47;;
23720;SDS011;42950;52.134;5.578;2023-04-28T02:59:31;6.50;;;4.57;;
23720;SDS011;42950;52.134;5.578;2023-04-28T03:01:56;10.23;;;4.45;;
23720;SDS011;42950;52.134;5.578;2023-04-28T03:04:22;6.07;;;4.22;;
23720;SDS011;42950;52.134;5.578;2023-04-28T03:06:48;6.10;;;4.60;;
23720;SDS011;42950;52.134;5.578;2023-04-28T03:09:14;6.80;;;5.03;;
23720;SDS011;42950;52.134;5.578;2023-04-28T03:11:40;6.97;;;5.22;;
23720;SDS011;42950;52.134;5.578;2023-04-28T03:14:06;8.05;;;4.95;;
23720;SDS011;42950;52.134;5.578;2023-04-28T03:16:31;5.78;;;4.82;;
23720;SDS011;42950;52.134;5.578;2023-04-28T03:18:57;7.15;;;4.20;;
23720;SDS011;42950;52.134;5.578;2023-04-28T03:21:23;9.23;;;4.50;;
23720;SDS011;42950;52.134;5.578;2023-04-28T03:23:52;5.22;;;4.45;;
23720;SDS011;42950;52.134;5.578;2023-04-28T03:26:17;6.57;;;4.45;;
23720;SDS011;42950;52.134;5.578;2023-04-28T03:28:43;5.28;;;4.45;;
23720;SDS011;42950;52.134;5.578;2023-04-28T03:31:09;4.82;;;4.20;;
23720;SDS011;42950;52.134;5.578;2023-04-28T03:33:35;9.00;;;5.03;;
23720;SDS011;42950;52.134;5.578;2023-04-28T03:36:00;6.50;;;4.93;;
23720;SDS011;42950;52.134;5.578;2023-04-28T03:38:26;4.72;;;4.25;;
23720;SDS011;42950;52.134;5.578;2023-04-28T03:40:52;5.97;;;4.53;;
23720;SDS011;42950;52.134;5.578;2023-04-28T03:43:17;7.50;;;4.50;;
23720;SDS011;42950;52.134;5.578;2023-04-28T03:45:43;7.13;;;4.38;;
23720;SDS011;42950;52.134;5.578;2023-04-28T03:48:09;6.03;;;4.68;;
23720;SDS011;42950;52.134;5.578;2023-04-28T03:50:34;7.30;;;4.78;;
23720;SDS011;42950;52.134;5.578;2023-04-28T03:53:00;9.43;;;5.05;;
23720;SDS011;42950;52.134;5.578;2023-04-28T03:55:26;7.75;;;4.63;;
23720;SDS011;42950;52.134;5.578;2023-04-28T03:57:52;5.90;;;4.55;;
23720;SDS011;42950;52.134;5.578;2023-04-28T04:00:17;6.85;;;5.10;;
23720;SDS011;42950;52.134;5.578;2023-04-28T04:02:44;4.75;;;4.22;;
23720;SDS011;42950;52.134;5.578;2023-04-28T04:05:10;6.75;;;4.78;;
23720;SDS011;42950;52.134;5.578;2023-04-28T04:07:36;6.72;;;5.10;;
23720;SDS011;42950;52.134;5.578;2023-04-28T04:10:02;7.28;;;5.20;;
23720;SDS011;42950;52.134;5.578;2023-04-28T04:12:28;5.25;;;4.75;;
23720;SDS011;42950;52.134;5.578;2023-04-28T04:14:53;6.75;;;5.03;;
23720;SDS011;42950;52.134;5.578;2023-04-28T04:17:19;6.22;;;4.35;;
23720;SDS011;42950;52.134;5.578;2023-04-28T04:19:46;7.68;;;4.80;;
23720;SDS011;42950;52.134;5.578;2023-04-28T04:22:11;6.68;;;4.82;;
23720;SDS011;42950;52.134;5.578;2023-04-28T04:24:37;7.88;;;5.00;;
23720;SDS011;42950;52.134;5.578;2023-04-28T04:27:02;5.90;;;5.18;;
23720;SDS011;42950;52.134;5.578;2023-04-28T04:29:28;7.35;;;4.45;;
23720;SDS011;42950;52.134;5.578;2023-04-28T04:31:54;6.72;;;4.80;;
23720;SDS011;42950;52.134;5.578;2023-04-28T04:34:19;5.75;;;5.03;;
23720;SDS011;42950;52.134;5.578;2023-04-28T04:36:45;6.80;;;4.93;;
23720;SDS011;42950;52.134;5.578;2023-04-28T04:39:12;5.65;;;4.82;;
23720;SDS011;42950;52.134;5.578;2023-04-28T04:41:40;7.05;;;4.95;;
23720;SDS011;42950;52.134;5.578;2023-04-28T04:44:06;7.65;;;5.20;;
23720;SDS011;42950;52.134;5.578;2023-04-28T04:46:32;5.95;;;4.85;;
23720;SDS011;42950;52.134;5.578;2023-04-28T04:48:57;7.97;;;5.05;;
23720;SDS011;42950;52.134;5.578;2023-04-28T04:51:23;9.27;;;5.50;;
23720;SDS011;42950;52.134;5.578;2023-04-28T04:53:48;8.30;;;5.97;;
23720;SDS011;42950;52.134;5.578;2023-04-28T04:56:14;7.20;;;5.60;;
23720;SDS011;42950;52.134;5.578;2023-04-28T04:58:42;7.95;;;5.38;;
23720;SDS011;42950;52.134;5.578;2023-04-28T05:01:08;7.30;;;5.43;;
23720;SDS011;42950;52.134;5.578;2023-04-28T05:03:34;7.53;;;5.38;;
23720;SDS011;42950;52.134;5.578;2023-04-28T05:06:00;10.38;;;5.28;;
23720;SDS011;42950;52.134;5.578;2023-04-28T05:08:27;9.15;;;5.72;;
23720;SDS011;42950;52.134;5.578;2023-04-28T05:10:52;8.07;;;5.55;;
23720;SDS011;42950;52.134;5.578;2023-04-28T05:13:18;7.70;;;5.47;;
23720;SDS011;42950;52.134;5.578;2023-04-28T05:15:44;11.32;;;5.63;;
23720;SDS011;42950;52.134;5.578;2023-04-28T05:18:09;7.68;;;5.55;;
23720;SDS011;42950;52.134;5.578;2023-04-28T05:20:37;7.80;;;5.78;;
23720;SDS011;42950;52.134;5.578;2023-04-28T05:23:04;6.40;;;5.72;;
23720;SDS011;42950;52.134;5.578;2023-04-28T05:25:31;8.10;;;6.03;;
23720;SDS011;42950;52.134;5.578;2023-04-28T05:27:56;6.10;;;5.20;;
23720;SDS011;42950;52.134;5.578;2023-04-28T05:30:23;6.70;;;5.68;;
23720;SDS011;42950;52.134;5.578;2023-04-28T05:32:49;8.93;;;6.53;;
23720;SDS011;42950;52.134;5.578;2023-04-28T05:35:14;8.43;;;6.35;;
23720;SDS011;42950;52.134;5.578;2023-04-28T05:37:40;10.43;;;6.10;;
23720;SDS011;42950;52.134;5.578;2023-04-28T05:40:07;9.68;;;6.68;;
23720;SDS011;42950;52.134;5.578;2023-04-28T05:42:33;8.90;;;6.90;;
23720;SDS011;42950;52.134;5.578;2023-04-28T05:45:00;11.70;;;6.85;;
23720;SDS011;42950;52.134;5.578;2023-04-28T05:47:26;9.13;;;6.93;;
23720;SDS011;42950;52.134;5.578;2023-04-28T05:49:53;9.32;;;6.78;;
23720;SDS011;42950;52.134;5.578;2023-04-28T05:52:19;8.60;;;7.32;;
23720;SDS011;42950;52.134;5.578;2023-04-28T05:54:45;10.73;;;7.28;;
23720;SDS011;42950;52.134;5.578;2023-04-28T05:57:11;12.30;;;8.07;;
23720;SDS011;42950;52.134;5.578;2023-04-28T05:59:38;10.27;;;7.85;;
23720;SDS011;42950;52.134;5.578;2023-04-28T06:02:03;11.18;;;8.23;;
23720;SDS011;42950;52.134;5.578;2023-04-28T06:04:29;9.90;;;7.90;;
23720;SDS011;42950;52.134;5.578;2023-04-28T06:06:54;14.13;;;8.88;;
23720;SDS011;42950;52.134;5.578;2023-04-28T06:09:20;10.95;;;8.77;;
23720;SDS011;42950;52.134;5.578;2023-04-28T06:11:46;11.77;;;9.10;;
23720;SDS011;42950;52.134;5.578;2023-04-28T06:14:11;15.55;;;8.88;;
23720;SDS011;42950;52.134;5.578;2023-04-28T06:16:37;13.95;;;9.18;;
23720;SDS011;42950;52.134;5.578;2023-04-28T06:19:02;14.57;;;9.18;;
23720;SDS011;42950;52.134;5.578;2023-04-28T06:21:28;11.80;;;9.10;;
23720;SDS011;42950;52.134;5.578;2023-04-28T06:23:53;13.82;;;9.90;;
23720;SDS011;42950;52.134;5.578;2023-04-28T06:26:19;13.85;;;9.95;;
23720;SDS011;42950;52.134;5.578;2023-04-28T06:28:45;13.18;;;10.20;;
23720;SDS011;42950;52.134;5.578;2023-04-28T06:31:10;12.60;;;10.25;;
23720;SDS011;42950;52.134;5.578;2023-04-28T06:33:36;11.30;;;9.77;;
23720;SDS011;42950;52.134;5.578;2023-04-28T06:36:02;14.63;;;10.10;;
23720;SDS011;42950;52.134;5.578;2023-04-28T06:38:28;12.07;;;10.75;;
23720;SDS011;42950;52.134;5.578;2023-04-28T06:40:53;18.70;;;11.90;;
23720;SDS011;42950;52.134;5.578;2023-04-28T06:43:19;15.77;;;11.00;;
23720;SDS011;42950;52.134;5.578;2023-04-28T06:45:44;14.73;;;10.57;;
23720;SDS011;42950;52.134;5.578;2023-04-28T06:48:10;17.63;;;11.07;;
23720;SDS011;42950;52.134;5.578;2023-04-28T06:50:36;15.20;;;10.93;;
23720;SDS011;42950;52.134;5.578;2023-04-28T06:53:01;14.43;;;10.98;;
23720;SDS011;42950;52.134;5.578;2023-04-28T06:55:27;15.27;;;10.95;;
23720;SDS011;42950;52.134;5.578;2023-04-28T06:57:53;15.80;;;11.77;;
23720;SDS011;42950;52.134;5.578;2023-04-28T07:00:18;17.35;;;11.45;;
23720;SDS011;42950;52.134;5.578;2023-04-28T07:02:44;15.05;;;11.57;;
23720;SDS011;42950;52.134;5.578;2023-04-28T07:05:10;15.45;;;11.70;;
23720;SDS011;42950;52.134;5.578;2023-04-28T07:07:36;13.88;;;11.45;;
23720;SDS011;42950;52.134;5.578;2023-04-28T07:10:03;16.02;;;11.95;;
23720;SDS011;42950;52.134;5.578;2023-04-28T07:12:29;18.20;;;11.98;;
23720;SDS011;42950;52.134;5.578;2023-04-28T07:14:54;14.43;;;11.65;;
23720;SDS011;42950;52.134;5.578;2023-04-28T07:17:20;17.40;;;11.70;;
23720;SDS011;42950;52.134;5.578;2023-04-28T07:19:45;15.38;;;11.63;;
23720;SDS011;42950;52.134;5.578;2023-04-28T07:22:11;17.15;;;12.52;;
23720;SDS011;42950;52.134;5.578;2023-04-28T07:24:36;16.73;;;12.75;;
23720;SDS011;42950;52.134;5.578;2023-04-28T07:27:03;16.50;;;13.57;;
23720;SDS011;42950;52.134;5.578;2023-04-28T07:29:29;16.20;;;12.45;;
23720;SDS011;42950;52.134;5.578;2023-04-28T07:31:58;13.48;;;11.50;;
23720;SDS011;42950;52.134;5.578;2023-04-28T07:34:25;16.58;;;12.77;;
23720;SDS011;42950;52.134;5.578;2023-04-28T07:36:51;17.27;;;12.50;;
23720;SDS011;42950;52.134;5.578;2023-04-28T07:39:17;16.65;;;12.93;;
23720;SDS011;42950;52.134;5.578;2023-04-28T07:41:42;23.15;;;13.70;;
23720;SDS011;42950;52.134;5.578;2023-04-28T07:44:08;19.15;;;13.43;;
23720;SDS011;42950;52.134;5.578;2023-04-28T07:46:34;16.65;;;13.55;;
23720;SDS011;42950;52.134;5.578;2023-04-28T07:48:59;18.75;;;13.30;;
23720;SDS011;42950;52.134;5.578;2023-04-28T07:51:25;16.83;;;13.77;;
23720;SDS011;42950;52.134;5.578;2023-04-28T07:53:51;15.73;;;13.20;;
23720;SDS011;42950;52.134;5.578;2023-04-28T07:56:17;16.90;;;13.05;;
23720;SDS011;42950;52.134;5.578;2023-04-28T07:58:42;18.85;;;13.70;;
23720;SDS011;42950;52.134;5.578;2023-04-28T08:01:08;18.50;;;14.32;;
23720;SDS011;42950;52.134;5.578;2023-04-28T08:03:34;15.85;;;13.52;;
23720;SDS011;42950;52.134;5.578;2023-04-28T08:05:59;18.02;;;14.07;;
23720;SDS011;42950;52.134;5.578;2023-04-28T08:08:25;17.08;;;13.63;;
23720;SDS011;42950;52.134;5.578;2023-04-28T08:10:51;16.23;;;13.70;;
23720;SDS011;42950;52.134;5.578;2023-04-28T08:13:17;18.52;;;13.27;;
23720;SDS011;42950;52.134;5.578;2023-04-28T08:15:42;18.83;;;13.82;;
23720;SDS011;42950;52.134;5.578;2023-04-28T08:18:08;15.18;;;13.23;;
23720;SDS011;42950;52.134;5.578;2023-04-28T08:20:33;17.30;;;13.60;;
23720;SDS011;42950;52.134;5.578;2023-04-28T08:22:59;15.77;;;13.07;;
23720;SDS011;42950;52.134;5.578;2023-04-28T08:25:25;13.80;;;12.40;;
23720;SDS011;42950;52.134;5.578;2023-04-28T08:27:51;17.70;;;13.35;;
23720;SDS011;42950;52.134;5.578;2023-04-28T08:30:16;16.45;;;12.80;;
23720;SDS011;42950;52.134;5.578;2023-04-28T08:32:42;16.50;;;13.05;;
23720;SDS011;42950;52.134;5.578;2023-04-28T08:35:08;17.40;;;14.15;;
23720;SDS011;42950;52.134;5.578;2023-04-28T08:37:33;17.33;;;12.73;;
23720;SDS011;42950;52.134;5.578;2023-04-28T08:39:59;16.70;;;12.88;;
23720;SDS011;42950;52.134;5.578;2023-04-28T08:42:29;17.20;;;13.07;;
23720;SDS011;42950;52.134;5.578;2023-04-28T08:44:56;16.00;;;12.98;;
23720;SDS011;42950;52.134;5.578;2023-04-28T08:47:23;17.10;;;13.15;;
23720;SDS011;42950;52.134;5.578;2023-04-28T08:50:07;16.30;;;13.10;;
23720;SDS011;42950;52.134;5.578;2023-04-28T08:52:34;14.90;;;13.40;;
23720;SDS011;42950;52.134;5.578;2023-04-28T08:55:05;18.75;;;13.77;;
23720;SDS011;42950;52.134;5.578;2023-04-28T08:57:45;20.33;;;14.20;;
23720;SDS011;42950;52.134;5.578;2023-04-28T09:00:14;18.40;;;14.27;;
23720;SDS011;42950;52.134;5.578;2023-04-28T09:02:39;19.25;;;15.13;;
23720;SDS011;42950;52.134;5.578;2023-04-28T09:05:10;20.42;;;14.50;;
23720;SDS011;42950;52.134;5.578;2023-04-28T09:07:36;21.42;;;15.15;;
23720;SDS011;42950;52.134;5.578;2023-04-28T09:12:45;16.88;;;14.75;;
23720;SDS011;42950;52.134;5.578;2023-04-28T09:15:24;18.52;;;15.25;;
23720;SDS011;42950;52.134;5.578;2023-04-28T09:18:00;17.73;;;15.15;;
23720;SDS011;42950;52.134;5.578;2023-04-28T09:20:27;22.35;;;16.33;;
23720;SDS011;42950;52.134;5.578;2023-04-28T09:22:55;18.63;;;15.65;;
23720;SDS011;42950;52.134;5.578;2023-04-28T09:25:21;22.63;;;15.50;;
23720;SDS011;42950;52.134;5.578;2023-04-28T09:27:48;17.38;;;15.48;;
23720;SDS011;42950;52.134;5.578;2023-04-28T09:30:14;21.80;;;15.85;;
23720;SDS011;42950;52.134;5.578;2023-04-28T09:32:40;19.45;;;15.45;;
23720;SDS011;42950;52.134;5.578;2023-04-28T09:35:06;23.70;;;15.45;;
23720;SDS011;42950;52.134;5.578;2023-04-28T09:37:33;23.50;;;16.92;;
23720;SDS011;42950;52.134;5.578;2023-04-28T09:40:08;20.83;;;16.63;;
23720;SDS011;42950;52.134;5.578;2023-04-28T09:42:36;23.38;;;17.33;;
23720;SDS011;42950;52.134;5.578;2023-04-28T09:45:04;18.65;;;16.05;;
23720;SDS011;42950;52.134;5.578;2023-04-28T09:47:32;19.23;;;16.48;;
23720;SDS011;42950;52.134;5.578;2023-04-28T09:50:00;25.02;;;17.70;;
23720;SDS011;42950;52.134;5.578;2023-04-28T09:52:28;22.35;;;17.70;;
23720;SDS011;42950;52.134;5.578;2023-04-28T09:54:54;20.70;;;17.83;;
23720;SDS011;42950;52.134;5.578;2023-04-28T09:57:21;21.48;;;18.10;;
23720;SDS011;42950;52.134;5.578;2023-04-28T09:59:48;24.70;;;18.13;;
23720;SDS011;42950;52.134;5.578;2023-04-28T10:02:16;22.10;;;18.17;;
23720;SDS011;42950;52.134;5.578;2023-04-28T10:04:44;22.63;;;18.98;;
23720;SDS011;42950;52.134;5.578;2023-04-28T10:07:11;22.23;;;17.77;;
23720;SDS011;42950;52.134;5.578;2023-04-28T10:09:40;22.60;;;17.65;;
23720;SDS011;42950;52.134;5.578;2023-04-28T10:12:13;23.63;;;17.48;;
23720;SDS011;42950;52.134;5.578;2023-04-28T10:14:39;25.55;;;19.42;;
23720;SDS011;42950;52.134;5.578;2023-04-28T10:17:06;25.75;;;18.75;;
23720;SDS011;42950;52.134;5.578;2023-04-28T10:19:32;21.10;;;18.75;;
23720;SDS011;42950;52.134;5.578;2023-04-28T10:24:45;23.77;;;20.85;;
23720;SDS011;42950;52.134;5.578;2023-04-28T10:27:28;26.85;;;22.15;;
23720;SDS011;42950;52.134;5.578;2023-04-28T10:32:39;21.08;;;18.63;;
23720;SDS011;42950;52.134;5.578;2023-04-28T10:38:08;22.35;;;19.17;;
23720;SDS011;42950;52.134;5.578;2023-04-28T10:40:41;22.30;;;19.10;;
23720;SDS011;42950;52.134;5.578;2023-04-28T10:43:10;21.95;;;18.13;;
23720;SDS011;42950;52.134;5.578;2023-04-28T10:48:51;20.70;;;18.70;;
23720;SDS011;42950;52.134;5.578;2023-04-28T10:56:09;21.63;;;19.38;;
23720;SDS011;42950;52.134;5.578;2023-04-28T10:58:43;21.23;;;19.02;;
23720;SDS011;42950;52.134;5.578;2023-04-28T11:03:49;16.13;;;14.48;;
23720;SDS011;42950;52.134;5.578;2023-04-28T11:06:30;16.65;;;15.05;;
23720;SDS011;42950;52.134;5.578;2023-04-28T11:09:46;14.65;;;13.35;;
23720;SDS011;42950;52.134;5.578;2023-04-28T11:16:53;13.85;;;12.48;;
23720;SDS011;42950;52.134;5.578;2023-04-28T11:19:21;13.65;;;12.35;;
23720;SDS011;42950;52.134;5.578;2023-04-28T11:21:48;13.73;;;12.40;;
23720;SDS011;42950;52.134;5.578;2023-04-28T11:24:15;14.57;;;13.10;;
23720;SDS011;42950;52.134;5.578;2023-04-28T11:26:41;13.50;;;12.20;;
23720;SDS011;42950;52.134;5.578;2023-04-28T11:29:07;13.18;;;11.98;;
23720;SDS011;42950;52.134;5.578;2023-04-28T11:31:33;12.40;;;11.30;;
23720;SDS011;42950;52.134;5.578;2023-04-28T11:36:33;12.27;;;11.13;;
23720;SDS011;42950;52.134;5.578;2023-04-28T11:39:01;14.35;;;11.57;;
23720;SDS011;42950;52.134;5.578;2023-04-28T11:41:29;13.50;;;12.20;;
23720;SDS011;42950;52.134;5.578;2023-04-28T11:43:55;13.80;;;12.50;;
23720;SDS011;42950;52.134;5.578;2023-04-28T11:46:22;15.00;;;13.50;;
23720;SDS011;42950;52.134;5.578;2023-04-28T11:48:54;16.52;;;14.82;;
23720;SDS011;42950;52.134;5.578;2023-04-28T11:51:32;15.00;;;13.52;;
23720;SDS011;42950;52.134;5.578;2023-04-28T11:54:00;16.63;;;14.00;;
23720;SDS011;42950;52.134;5.578;2023-04-28T11:56:27;16.08;;;13.32;;
23720;SDS011;42950;52.134;5.578;2023-04-28T11:59:02;15.23;;;13.63;;
23720;SDS011;42950;52.134;5.578;2023-04-28T12:01:33;15.70;;;13.43;;
23720;SDS011;42950;52.134;5.578;2023-04-28T12:04:08;14.55;;;12.18;;
23720;SDS011;42950;52.134;5.578;2023-04-28T12:06:33;14.10;;;12.70;;
23720;SDS011;42950;52.134;5.578;2023-04-28T12:08:59;12.60;;;11.27;;
23720;SDS011;42950;52.134;5.578;2023-04-28T12:11:28;14.45;;;12.65;;
23720;SDS011;42950;52.134;5.578;2023-04-28T12:14:04;18.58;;;13.02;;
23720;SDS011;42950;52.134;5.578;2023-04-28T12:16:38;14.73;;;12.40;;
23720;SDS011;42950;52.134;5.578;2023-04-28T12:19:07;14.90;;;12.38;;
23720;SDS011;42950;52.134;5.578;2023-04-28T12:21:35;19.30;;;11.90;;
23720;SDS011;42950;52.134;5.578;2023-04-28T12:24:12;14.63;;;10.85;;
23720;SDS011;42950;52.134;5.578;2023-04-28T12:26:41;12.88;;;10.80;;
23720;SDS011;42950;52.134;5.578;2023-04-28T12:29:07;17.33;;;11.65;;
23720;SDS011;42950;52.134;5.578;2023-04-28T12:31:46;12.60;;;11.05;;
23720;SDS011;42950;52.134;5.578;2023-04-28T12:34:13;15.07;;;11.48;;
23720;SDS011;42950;52.134;5.578;2023-04-28T12:36:39;14.60;;;10.98;;
23720;SDS011;42950;52.134;5.578;2023-04-28T12:39:05;14.18;;;11.00;;
23720;SDS011;42950;52.134;5.578;2023-04-28T12:41:31;12.27;;;10.40;;
23720;SDS011;42950;52.134;5.578;2023-04-28T12:43:57;13.55;;;11.75;;
23720;SDS011;42950;52.134;5.578;2023-04-28T12:46:23;15.98;;;10.75;;
23720;SDS011;42950;52.134;5.578;2023-04-28T12:48:48;14.90;;;11.43;;
23720;SDS011;42950;52.134;5.578;2023-04-28T12:51:14;12.95;;;9.85;;
23720;SDS011;42950;52.134;5.578;2023-04-28T12:53:39;11.63;;;9.77;;
23720;SDS011;42950;52.134;5.578;2023-04-28T12:56:05;12.60;;;8.93;;
23720;SDS011;42950;52.134;5.578;2023-04-28T12:58:31;12.73;;;9.02;;
23720;SDS011;42950;52.134;5.578;2023-04-28T13:00:56;12.15;;;9.10;;
23720;SDS011;42950;52.134;5.578;2023-04-28T13:03:22;9.68;;;7.22;;
23720;SDS011;42950;52.134;5.578;2023-04-28T13:05:48;8.15;;;6.15;;
23720;SDS011;42950;52.134;5.578;2023-04-28T13:08:13;9.00;;;5.75;;
23720;SDS011;42950;52.134;5.578;2023-04-28T13:10:39;5.30;;;4.80;;
23720;SDS011;42950;52.134;5.578;2023-04-28T13:13:04;8.20;;;4.53;;
23720;SDS011;42950;52.134;5.578;2023-04-28T13:15:30;8.48;;;4.93;;
23720;SDS011;42950;52.134;5.578;2023-04-28T13:17:56;5.80;;;4.43;;
23720;SDS011;42950;52.134;5.578;2023-04-28T13:20:23;5.60;;;4.13;;
23720;SDS011;42950;52.134;5.578;2023-04-28T13:22:49;6.78;;;4.78;;
23720;SDS011;42950;52.134;5.578;2023-04-28T13:25:14;5.00;;;4.50;;
23720;SDS011;42950;52.134;5.578;2023-04-28T13:27:40;5.72;;;4.03;;
23720;SDS011;42950;52.134;5.578;2023-04-28T13:30:06;4.78;;;3.65;;
23720;SDS011;42950;52.134;5.578;2023-04-28T13:32:32;6.15;;;3.70;;
23720;SDS011;42950;52.134;5.578;2023-04-28T13:34:58;3.70;;;3.13;;
23720;SDS011;42950;52.134;5.578;2023-04-28T13:37:23;4.35;;;3.95;;
23720;SDS011;42950;52.134;5.578;2023-04-28T13:39:49;4.68;;;4.35;;
23720;SDS011;42950;52.134;5.578;2023-04-28T13:42:15;5.00;;;4.60;;
23720;SDS011;42950;52.134;5.578;2023-04-28T13:44:40;5.25;;;4.75;;
23720;SDS011;42950;52.134;5.578;2023-04-28T13:47:06;5.55;;;5.15;;
23720;SDS011;42950;52.134;5.578;2023-04-28T13:49:33;6.40;;;5.80;;
23720;SDS011;42950;52.134;5.578;2023-04-28T13:51:59;6.85;;;6.25;;
23720;SDS011;42950;52.134;5.578;2023-04-28T13:54:24;6.57;;;6.03;;
23720;SDS011;42950;52.134;5.578;2023-04-28T13:56:50;7.22;;;6.45;;
23720;SDS011;42950;52.134;5.578;2023-04-28T13:59:16;7.50;;;6.90;;
23720;SDS011;42950;52.134;5.578;2023-04-28T14:01:41;7.22;;;6.57;;
23720;SDS011;42950;52.134;5.578;2023-04-28T14:04:07;7.65;;;6.95;;
23720;SDS011;42950;52.134;5.578;2023-04-28T14:06:33;8.05;;;7.45;;
23720;SDS011;42950;52.134;5.578;2023-04-28T14:08:59;7.35;;;6.75;;
23720;SDS011;42950;52.134;5.578;2023-04-28T14:11:25;8.27;;;7.57;;
23720;SDS011;42950;52.134;5.578;2023-04-28T14:13:51;7.28;;;6.68;;
23720;SDS011;42950;52.134;5.578;2023-04-28T14:16:16;7.18;;;6.68;;
23720;SDS011;42950;52.134;5.578;2023-04-28T14:18:42;7.72;;;7.13;;
23720;SDS011;42950;52.134;5.578;2023-04-28T14:21:08;7.22;;;6.72;;
23720;SDS011;42950;52.134;5.578;2023-04-28T14:23:33;6.68;;;6.18;;
23720;SDS011;42950;52.134;5.578;2023-04-28T14:25:59;6.35;;;5.95;;
23720;SDS011;42950;52.134;5.578;2023-04-28T14:28:25;6.97;;;6.45;;
23720;SDS011;42950;52.134;5.578;2023-04-28T14:30:52;5.70;;;5.30;;
23720;SDS011;42950;52.134;5.578;2023-04-28T14:33:18;5.50;;;5.18;;
23720;SDS011;42950;52.134;5.578;2023-04-28T14:35:43;5.28;;;4.97;;
23720;SDS011;42950;52.134;5.578;2023-04-28T14:38:09;4.90;;;4.60;;
23720;SDS011;42950;52.134;5.578;2023-04-28T14:40:34;4.80;;;4.50;;
23720;SDS011;42950;52.134;5.578;2023-04-28T14:43:00;4.28;;;4.07;;
23720;SDS011;42950;52.134;5.578;2023-04-28T14:45:25;4.10;;;3.80;;
23720;SDS011;42950;52.134;5.578;2023-04-28T14:47:51;4.75;;;4.25;;
23720;SDS011;42950;52.134;5.578;2023-04-28T14:50:17;4.55;;;4.20;;
23720;SDS011;42950;52.134;5.578;2023-04-28T14:52:43;5.03;;;4.63;;
23720;SDS011;42950;52.134;5.578;2023-04-28T14:55:09;5.72;;;5.22;;
23720;SDS011;42950;52.134;5.578;2023-04-28T14:57:34;6.75;;;6.20;;
23720;SDS011;42950;52.134;5.578;2023-04-28T15:00:01;6.95;;;6.35;;
23720;SDS011;42950;52.134;5.578;2023-04-28T15:02:28;8.00;;;6.30;;
23720;SDS011;42950;52.134;5.578;2023-04-28T15:04:54;6.95;;;6.35;;